Data for 01/17/2011

Time Sea-Level Adjusted Pressure Absolute Pressure Temperature Relative Humidity Dew Point   
(mb) (inHg) (mb) (inHg) (C) (F) (%) (C) (F)
00:05 1008 29.77 837 24.72 6.5 43.8 65 0.5 32.9
00:10 1008 29.77 837 24.72 6.5 43.8 65 0.5 33
00:15 1008 29.77 837 24.72 6.5 43.7 65 0.4 32.6
00:20 1008 29.77 837 24.72 6.6 43.9 64 0.3 32.6
00:25 1008 29.77 837 24.72 6.7 44 64 0.3 32.5
00:30 1008 29.77 837 24.72 6.7 44.1 63 0.1 32.3
00:35 1008 29.77 837 24.72 6.7 44.1 62 -0 32
00:40 1008 29.77 837 24.72 6.8 44.3 61 -0.3 31.5
00:45 1008 29.77 837 24.72 7 44.6 60 -0.3 31.4
00:50 1008 29.77 837 24.72 6.9 44.4 60 -0.3 31.4
00:55 1008 29.77 837 24.72 6.6 43.9 60 -0.5 31.1
01:00 1008 29.77 837 24.72 6.5 43.7 61 -0.5 31.1
01:05 1008 29.77 837 24.72 6.7 44 60 -0.5 31.2
01:10 1008 29.77 837 24.72 6.6 43.9 63 0.2 32.3
01:15 1008 29.77 837 24.72 6 42.8 66 0.2 32.3
01:20 1008 29.77 837 24.72 5.6 42 67 0 32.1
01:25 1008 29.77 837 24.72 5.4 41.8 68 0.1 32.2
01:30 1008 29.77 837 24.72 5.3 41.6 69 0.1 32.1
01:35 1008 29.77 837 24.72 5.2 41.4 70 0.2 32.3
01:40 1008 29.77 837 24.72 5 41 71 0.2 32.3
01:45 1008 29.77 837 24.72 5 41 71 0.3 32.5
01:50 1008 29.77 837 24.72 5 41 72 0.3 32.5
01:55 1008 29.77 837 24.72 5.1 41.2 71 0.3 32.5
02:00 1008 29.77 837 24.72 5.2 41.3 69 -0 32
02:05 1008 29.77 837 24.72 5.7 42.3 65 -0.3 31.5
02:10 1008 29.77 837 24.72 6.3 43.3 61 -0.7 30.7
02:15 1008 29.77 837 24.72 6.6 43.8 59 -0.8 30.6
02:20 1008 29.77 837 24.72 6.8 44.2 58 -1 30.2
02:25 1008 29.77 837 24.72 6.8 44.2 59 -0.6 30.9
02:30 1008 29.77 837 24.72 6.5 43.7 60 -0.7 30.7
02:35 1008 29.77 837 24.72 6.4 43.5 59 -1 30.3
02:40 1008 29.77 837 24.72 6.7 44.1 59 -0.7 30.7
02:45 1008 29.77 837 24.72 6.7 44 59 -0.7 30.7
02:50 1008 29.77 837 24.72 6.8 44.2 56 -1.3 29.6
02:55 1008 29.77 837 24.72 7.1 44.7 55 -1.4 29.5
03:00 1008 29.77 837 24.72 7 44.7 55 -1.4 29.5
03:05 1008 29.77 837 24.72 6.9 44.4 56 -1.3 29.7
03:10 1008 29.77 837 24.72 6.7 44.1 56 -1.4 29.6
03:15 1008 29.77 837 24.72 6.7 44 56 -1.5 29.4
03:20 1008 29.77 837 24.72 6.6 43.9 56 -1.6 29.2
03:25 1008 29.77 837 24.72 6.5 43.7 57 -1.4 29.6
03:30 1008 29.77 837 24.72 6.3 43.3 57 -1.5 29.2
03:35 1008 29.77 837 24.72 6.1 43 58 -1.5 29.3
03:40 1008 29.77 837 24.72 6 42.7 58 -1.6 29.2
03:45 1008 29.77 837 24.72 5.9 42.6 58 -1.8 28.8
03:50 1008 29.77 837 24.72 5.9 42.5 58 -1.7 29
03:55 1008 29.77 837 24.72 5.9 42.6 56 -2.1 28.2
04:00 1008 29.77 837 24.72 6 42.8 56 -2.2 28.1
04:05 1008 29.77 837 24.72 6.1 43 56 -1.9 28.5
04:10 1008 29.77 837 24.72 6.2 43.2 55 -2.1 28.2
04:15 1008 29.77 837 24.72 6.3 43.4 55 -2 28.5
04:20 1008 29.77 837 24.72 6.3 43.4 55 -2.1 28.2
04:25 1008 29.77 837 24.72 6.4 43.5 54 -2.2 28
04:30 1008 29.77 837 24.72 6.4 43.6 54 -2.2 28.1
04:35 1008 29.77 837 24.72 6.5 43.7 53 -2.3 27.9
04:40 1008 29.77 837 24.72 6.5 43.6 54 -2.1 28.2
04:45 1008 29.77 837 24.72 6.2 43.2 55 -2.2 28
04:50 1008 29.77 837 24.72 6.2 43.2 53 -2.6 27.2
04:55 1008 29.77 837 24.72 6.5 43.7 52 -2.7 27.2
05:00 1008 29.77 837 24.72 6.6 43.9 51 -2.8 27
05:05 1008 29.77 837 24.72 6.7 44.1 51 -2.6 27.3
05:10 1008 29.77 837 24.72 6.5 43.7 53 -2.3 27.9
05:15 1008 29.77 837 24.72 6.2 43.2 53 -2.6 27.3
05:20 1008 29.77 837 24.72 6.2 43.2 52 -2.8 27
05:25 1008 29.77 837 24.72 6.4 43.5 52 -2.8 27
05:30 1008 29.77 837 24.72 6.5 43.6 51 -2.9 26.8
05:35 1008 29.77 837 24.72 6.5 43.7 52 -2.6 27.3
05:40 1008 29.77 837 24.72 6.4 43.5 52 -2.6 27.3
05:45 1008 29.77 837 24.72 6.3 43.3 53 -2.5 27.6
05:50 1008 29.77 837 24.72 6.1 42.9 55 -2.4 27.8
05:55 1008 29.77 837 24.72 5.9 42.7 55 -2.4 27.7
06:00 1008 29.77 837 24.72 6 42.7 54 -2.7 27.2
06:05 1008 29.77 837 24.72 5.9 42.7 56 -2.1 28.2
06:10 1008 29.77 837 24.72 5.6 42 56 -2.4 27.7
06:15 1008 29.77 837 24.72 5.6 42.1 56 -2.5 27.4
06:20 1008 29.77 837 24.72 5.7 42.3 55 -2.6 27.3
06:25 1008 29.77 837 24.72 5.8 42.5 54 -2.7 27.1
06:30 1008 29.77 837 24.72 6 42.7 54 -2.6 27.3
06:35 1008 29.77 837 24.72 5.9 42.6 55 -2.5 27.5
06:40 1008 29.77 837 24.72 5.8 42.5 55 -2.5 27.5
06:45 1008 29.77 837 24.72 5.8 42.4 55 -2.6 27.4
06:50 1008 29.77 837 24.72 5.8 42.4 55 -2.6 27.4
06:55 1008 29.77 837 24.72 5.7 42.3 56 -2.3 27.8
07:00 1008 29.77 837 24.72 5.6 42 57 -2.3 27.8
07:05 1008 29.77 838 24.75 5.4 41.7 58 -2.1 28.1
07:10 1008 29.77 838 24.75 5.2 41.4 57 -2.5 27.5
07:15 1008 29.77 838 24.75 5.4 41.6 57 -2.5 27.4
07:20 1008 29.77 838 24.75 5.4 41.6 57 -2.5 27.6
07:25 1008 29.77 838 24.75 5.3 41.6 57 -2.6 27.4
07:30 1008 29.77 838 24.75 5.4 41.6 57 -2.6 27.3
07:35 1008 29.77 838 24.75 5.5 41.8 58 -2.2 28
07:40 1008 29.77 838 24.75 5.2 41.4 59 -2.2 28
07:45 1008 29.77 838 24.75 5.1 41.2 60 -2 28.3
07:50 1008 29.77 838 24.75 4.8 40.7 62 -1.9 28.6
07:55 1008 29.77 838 24.75 4.4 39.9 63 -2.1 28.3
08:00 1009 29.8 838 24.75 4.3 39.8 63 -2 28.4
08:05 1009 29.8 838 24.75 4.4 39.9 63 -2.1 28.2
08:10 1009 29.8 838 24.75 4.4 39.8 64 -1.9 28.6
08:15 1009 29.8 838 24.75 4.3 39.7 64 -1.9 28.6
08:20 1009 29.8 838 24.75 4.3 39.7 63 -2.1 28.3
08:25 1009 29.8 838 24.75 4.4 40 64 -1.8 28.7
08:30 1009 29.8 838 24.75 4.4 39.9 64 -1.9 28.6
08:35 1009 29.8 838 24.75 4.4 40 62 -2.1 28.2
08:40 1009 29.8 838 24.75 4.5 40.1 63 -2 28.3
08:45 1009 29.8 838 24.75 4.6 40.3 62 -2.1 28.1
08:50 1009 29.8 838 24.75 4.8 40.7 61 -2.1 28.2
08:55 1009 29.8 838 24.75 5 41 59 -2.3 27.8
09:00 1009 29.8 838 24.75 5.3 41.5 59 -2.1 28.3
09:05 1009 29.8 838 24.75 5.2 41.4 60 -2 28.4
09:10 1009 29.8 838 24.75 5.4 41.8 59 -1.8 28.7
09:15 1009 29.8 838 24.75 5.5 41.9 59 -1.9 28.5
09:20 1009 29.8 838 24.75 5.5 41.9 58 -2 28.5
09:25 1009 29.8 839 24.78 5.6 42.2 58 -2 28.4
09:30 1009 29.8 839 24.78 5.5 41.9 58 -2 28.3
09:35 1010 29.83 839 24.78 5.3 41.6 59 -2 28.3
09:40 1010 29.83 839 24.78 5.2 41.4 59 -2 28.4
09:45 1010 29.83 839 24.78 5.3 41.5 58 -2.2 28.1
09:50 1009 29.8 839 24.78 5.4 41.8 60 -1.8 28.7
09:55 1009 29.8 839 24.78 5.6 42 58 -2 28.5
10:00 1009 29.8 839 24.78 5.8 42.5 58 -1.9 28.7
10:05 1009 29.8 839 24.78 5.9 42.5 57 -1.9 28.6
10:10 1010 29.83 839 24.78 5.9 42.6 58 -1.7 28.9
10:15 1010 29.83 839 24.78 5.8 42.5 59 -1.6 29
10:20 1010 29.83 839 24.78 5.7 42.2 60 -1.5 29.2
10:25 1010 29.83 839 24.78 5.7 42.2 59 -1.6 29.1
10:30 1010 29.83 839 24.78 5.8 42.4 59 -1.6 29.1
10:35 1010 29.83 839 24.78 6 42.8 57 -1.8 28.8
10:40 1009 29.8 839 24.78 6.2 43.2 57 -1.7 29
10:45 1009 29.8 839 24.78 6.4 43.5 53 -2.4 27.7
10:50 1009 29.8 839 24.78 6.7 44 53 -2.2 28.1
10:55 1009 29.8 839 24.78 6.7 44.1 53 -2.2 28
11:00 1009 29.8 838 24.75 6.5 43.8 53 -2.4 27.6
11:05 1009 29.8 838 24.75 6.6 43.8 51 -2.9 26.8
11:10 1009 29.8 838 24.75 6.7 44 51 -2.8 26.9
11:15 1009 29.8 838 24.75 6.7 44.1 50 -2.9 26.7
11:20 1009 29.8 838 24.75 6.8 44.2 50 -2.8 27
11:25 1009 29.8 838 24.75 6.8 44.2 50 -2.9 26.9
11:30 1009 29.8 838 24.75 6.7 44 51 -2.6 27.3
11:35 1009 29.8 839 24.78 6.6 43.9 52 -2.5 27.5
11:40 1009 29.8 839 24.78 6.6 43.8 53 -2.4 27.7
11:45 1009 29.8 838 24.75 6.5 43.7 53 -2.5 27.5
11:50 1009 29.8 838 24.75 6.4 43.6 53 -2.4 27.7
11:55 1009 29.8 838 24.75 6.4 43.4 53 -2.6 27.2
12:00 1009 29.8 838 24.75 6.4 43.5 53 -2.4 27.6
12:05 1009 29.8 838 24.75 6.5 43.7 52 -2.6 27.3
12:10 1009 29.8 838 24.75 6.7 44 51 -2.8 27
12:15 1009 29.8 838 24.75 6.7 44.1 50 -2.9 26.8
12:20 1009 29.8 838 24.75 6.8 44.2 50 -2.8 27
12:25 1009 29.8 838 24.75 6.8 44.2 50 -2.8 27
12:30 1009 29.8 838 24.75 6.6 43.9 52 -2.6 27.4
12:35 1009 29.8 838 24.75 6.4 43.5 52 -2.7 27.1
12:40 1009 29.8 838 24.75 6.4 43.5 52 -2.9 26.8
12:45 1009 29.8 838 24.75 6.5 43.6 51 -2.9 26.7
12:50 1009 29.8 838 24.75 6.4 43.4 53 -2.6 27.3
12:55 1009 29.8 838 24.75 6.1 42.9 54 -2.6 27.3
13:00 1008 29.77 838 24.75 6 42.8 54 -2.6 27.3
13:05 1008 29.77 838 24.75 5.9 42.7 55 -2.4 27.7
13:10 1008 29.77 838 24.75 5.8 42.4 57 -2.1 28.3
13:15 1008 29.77 838 24.75 5.6 42.1 57 -2.1 28.2
13:20 1008 29.77 838 24.75 5.5 41.8 59 -1.9 28.5
13:25 1009 29.8 838 24.75 5.4 41.8 59 -2 28.3
13:30 1009 29.8 838 24.75 5.5 41.9 59 -1.9 28.6
13:35 1008 29.77 838 24.75 5.4 41.8 59 -1.9 28.6
13:40 1008 29.77 838 24.75 5.3 41.6 60 -1.7 29
13:45 1009 29.8 838 24.75 5.2 41.4 60 -1.9 28.6
13:50 1009 29.8 838 24.75 5.3 41.6 60 -1.8 28.7
13:55 1009 29.8 838 24.75 5.3 41.6 60 -1.8 28.7
14:00 1009 29.8 838 24.75 5.3 41.6 60 -1.7 28.9
14:05 1009 29.8 838 24.75 5.3 41.6 59 -2.1 28.2
14:10 1009 29.8 838 24.75 5.4 41.8 58 -2.1 28.3
14:15 1009 29.8 838 24.75 5.4 41.8 58 -2.2 28.1
14:20 1009 29.8 838 24.75 5.6 42 58 -2.1 28.2
14:25 1009 29.8 838 24.75 5.6 42.1 59 -1.9 28.7
14:30 1009 29.8 838 24.75 5.7 42.3 58 -1.8 28.7
14:35 1009 29.8 838 24.75 5.7 42.3 59 -1.6 29.1
14:40 1009 29.8 838 24.75 5.6 42 61 -1.3 29.7
14:45 1009 29.8 838 24.75 5.4 41.7 61 -1.4 29.4
14:50 1009 29.8 839 24.78 5.5 41.8 60 -1.6 29.2
14:55 1010 29.83 839 24.78 5.4 41.7 62 -1.2 29.9
15:00 1010 29.83 839 24.78 5.3 41.5 64 -0.9 30.3
15:05 1010 29.83 839 24.78 5.1 41.1 67 -0.6 31
15:10 1010 29.83 839 24.78 4.7 40.4 70 -0.4 31.2
15:15 1010 29.83 839 24.78 4.5 40.1 71 -0.3 31.4
15:20 1010 29.83 839 24.78 4.4 39.9 71 -0.4 31.3
15:25 1010 29.83 839 24.78 4.4 40 71 -0.3 31.4
15:30 1010 29.83 839 24.78 4.5 40.2 69 -0.6 30.9
15:35 1010 29.83 839 24.78 4.5 40.2 70 -0.4 31.3
15:40 1010 29.83 839 24.78 4.4 40 71 -0.3 31.4
15:45 1010 29.83 839 24.78 4.5 40.2 64 -1.7 29
15:50 1010 29.83 839 24.78 5.1 41.2 63 -1.4 29.5
15:55 1010 29.83 840 24.81 5.1 41.2 64 -1.2 29.8
16:00 1010 29.83 840 24.81 5.1 41.3 61 -1.8 28.7
16:05 1010 29.83 840 24.81 5.1 41.2 64 -1.2 29.9
16:10 1011 29.85 840 24.81 4.8 40.7 65 -1.1 30
16:15 1011 29.85 840 24.81 4.8 40.7 63 -1.7 29
16:20 1011 29.85 840 24.81 5 41.1 63 -1.4 29.5
16:25 1011 29.85 840 24.81 5 41 61 -1.8 28.7
16:30 1011 29.85 840 24.81 5.2 41.3 61 -1.8 28.8
16:35 1011 29.85 840 24.81 5.1 41.3 61 -1.7 29
16:40 1011 29.85 840 24.81 5.1 41.2 62 -1.6 29.2
16:45 1011 29.85 840 24.81 5.1 41.1 62 -1.5 29.2
16:50 1011 29.85 840 24.81 5 41.1 62 -1.6 29.2
16:55 1011 29.85 840 24.81 5 41 63 -1.5 29.2
17:00 1011 29.85 840 24.81 4.8 40.7 63 -1.6 29
17:05 1011 29.85 840 24.81 4.8 40.6 62 -1.8 28.8
17:10 1011 29.85 840 24.81 4.8 40.6 61 -2 28.4
17:15 1011 29.85 840 24.81 4.9 40.8 61 -2 28.4
17:20 1011 29.85 840 24.81 4.8 40.7 62 -1.8 28.8
17:25 1011 29.85 841 24.83 4.7 40.5 63 -1.7 28.9
17:30 1011 29.85 841 24.83 4.8 40.6 64 -1.5 29.4
17:35 1011 29.85 841 24.83 4.7 40.4 67 -1 30.2
17:40 1011 29.85 841 24.83 4.5 40 67 -1.2 29.8
17:45 1011 29.85 841 24.83 4.3 39.8 67 -1.2 29.8
17:50 1012 29.88 841 24.83 4.3 39.7 67 -1.2 29.8
17:55 1012 29.88 841 24.83 4.2 39.6 67 -1.3 29.7
18:00 1012 29.88 841 24.83 4.1 39.4 68 -1.2 29.8
18:05 1012 29.88 841 24.83 4.1 39.3 68 -1.3 29.7
18:10 1012 29.88 841 24.83 4 39.2 69 -1.2 29.8
18:15 1012 29.88 841 24.83 3.9 39.1 70 -1.1 30
18:20 1012 29.88 841 24.83 3.9 39 70 -1.1 29.9
18:25 1012 29.88 841 24.83 3.9 39 70 -1 30.1
18:30 1012 29.88 842 24.86 3.9 39.1 69 -1.3 29.7
18:35 1012 29.88 842 24.86 4 39.3 68 -1.2 29.8
18:40 1012 29.88 842 24.86 4.1 39.4 68 -1.3 29.7
18:45 1012 29.88 842 24.86 4 39.2 69 -1.1 30
18:50 1012 29.88 842 24.86 3.9 39 68 -1.5 29.3
18:55 1012 29.88 842 24.86 3.8 38.9 66 -1.9 28.5
19:00 1012 29.88 841 24.83 4 39.1 65 -2 28.3
19:05 1012 29.88 841 24.83 3.9 39.1 66 -1.8 28.7
19:10 1012 29.88 842 24.86 3.8 38.8 66 -1.9 28.6
19:15 1012 29.88 842 24.86 3.7 38.7 65 -2.2 28.1
19:20 1012 29.88 842 24.86 3.8 38.8 65 -2.2 28.1
19:25 1012 29.88 842 24.86 3.8 38.9 64 -2.4 27.6
19:30 1013 29.91 842 24.86 3.9 39 62 -2.7 27.1
19:35 1013 29.91 842 24.86 4.1 39.3 62 -2.6 27.3
19:40 1013 29.91 842 24.86 4 39.2 62 -2.6 27.3
19:45 1013 29.91 842 24.86 4 39.2 62 -2.6 27.3
19:50 1013 29.91 842 24.86 3.9 39.1 63 -2.5 27.5
19:55 1013 29.91 842 24.86 3.9 39.1 62 -2.6 27.2
20:00 1013 29.91 842 24.86 3.9 39.1 63 -2.5 27.5
20:05 1013 29.91 842 24.86 4 39.1 63 -2.5 27.5
20:10 1013 29.91 842 24.86 4 39.2 62 -2.7 27.2
20:15 1013 29.91 842 24.86 3.9 39 62 -2.6 27.3
20:20 1013 29.91 842 24.86 3.9 39.1 62 -2.7 27.1
20:25 1013 29.91 842 24.86 3.8 38.9 61 -3 26.6
20:30 1013 29.91 842 24.86 3.8 38.8 62 -2.9 26.8
20:35 1013 29.91 842 24.86 3.6 38.6 61 -3.1 26.3
20:40 1013 29.91 842 24.86 3.7 38.6 61 -3.2 26.3
20:45 1013 29.91 842 24.86 3.6 38.4 61 -3.3 26.1
20:50 1013 29.91 842 24.86 3.6 38.5 60 -3.5 25.8
20:55 1013 29.91 842 24.86 3.6 38.4 59 -3.6 25.5
21:00 1013 29.91 842 24.86 3.6 38.4 60 -3.5 25.7
21:05 1013 29.91 842 24.86 3.6 38.5 59 -3.6 25.6
21:10 1013 29.91 842 24.86 3.6 38.4 60 -3.4 25.9
21:15 1013 29.91 842 24.86 3.6 38.5 59 -3.6 25.5
21:20 1013 29.91 842 24.86 3.6 38.5 59 -3.8 25.2
21:25 1013 29.91 842 24.86 3.6 38.4 59 -3.7 25.3
21:30 1013 29.91 842 24.86 3.5 38.3 60 -3.5 25.7
21:35 1013 29.91 842 24.86 3.4 38.2 60 -3.6 25.5
21:40 1013 29.91 842 24.86 3.4 38.1 60 -3.6 25.6
21:45 1013 29.91 842 24.86 3.4 38.1 62 -3.3 26.1
21:50 1013 29.91 842 24.86 3.3 37.9 61 -3.5 25.7
21:55 1013 29.91 842 24.86 3.2 37.8 61 -3.5 25.7
22:00 1013 29.91 842 24.86 3.2 37.7 62 -3.5 25.7
22:05 1013 29.91 842 24.86 3.3 37.9 59 -4 24.8
22:10 1013 29.91 842 24.86 3.6 38.6 58 -3.9 24.9
22:15 1013 29.91 843 24.89 3.8 38.8 58 -3.8 25.2
22:20 1013 29.91 843 24.89 3.8 38.8 57 -3.9 25
22:25 1013 29.91 843 24.89 3.8 38.8 56 -4.1 24.6
22:30 1013 29.91 843 24.89 3.9 39 56 -4.1 24.6
22:35 1013 29.91 843 24.89 3.8 38.9 57 -3.9 25.1
22:40 1013 29.91 843 24.89 3.8 38.9 56 -4.2 24.4
22:45 1013 29.91 843 24.89 3.8 38.8 57 -4 24.7
22:50 1013 29.91 843 24.89 3.7 38.6 57 -4 24.8
22:55 1013 29.91 843 24.89 3.5 38.3 58 -4.1 24.7
23:00 1014 29.94 843 24.89 3.5 38.2 58 -4.1 24.6
23:05 1014 29.94 843 24.89 3.6 38.4 58 -3.9 25
23:10 1013 29.91 843 24.89 3.5 38.3 58 -4 24.9
23:15 1014 29.94 843 24.89 3.5 38.3 58 -3.9 24.9
23:20 1014 29.94 843 24.89 3.4 38.2 59 -3.8 25.1
23:25 1014 29.94 843 24.89 3.3 37.9 61 -3.4 25.8
23:30 1014 29.94 843 24.89 3.2 37.8 61 -3.7 25.4
23:35 1014 29.94 843 24.89 3.3 37.9 59 -3.9 25
23:40 1014 29.94 843 24.89 3.4 38.1 61 -3.5 25.7
23:45 1014 29.94 843 24.89 3.2 37.8 62 -3.5 25.8
23:50 1014 29.94 843 24.89 3.2 37.8 62 -3.4 25.8
23:55 1014 29.94 843 24.89 3.2 37.7 63 -3.2 26.2
24:00 1014 29.94 843 24.89 3 37.4 60 -4 24.8